Time;durP1;ratioP1;P1;durP2;ratioP2;P2;SDS_P1;SDS_P2;PMS_P1;PMS_P2;Temp;Humidity;BMP_temperature;BMP_pressure;BME280_temperature;BME280_humidity;BME280_pressure;Samples;Min_cycle;Max_cycle;Signal;HPM_P1;HPM_P2
2021/10/25 00:01:29;;;;;;;8.40;5.67;;;8.50;99.90;;;;;;5046725;28;20663;-51
2021/10/25 00:03:57;;;;;;;6.50;5.40;;;8.30;99.90;;;;;;5043787;28;20203;-51
2021/10/25 00:06:24;;;;;;;6.37;5.13;;;8.50;99.90;;;;;;5041626;28;20634;-51
2021/10/25 00:08:51;;;;;;;9.67;5.97;;;8.50;99.90;;;;;;5043712;28;20262;-52
2021/10/25 00:11:18;;;;;;;7.77;5.50;;;8.40;99.90;;;;;;5041003;28;20976;-49
2021/10/25 00:13:45;;;;;;;7.23;5.67;;;8.50;99.90;;;;;;5045558;28;20635;-52
2021/10/25 00:16:12;;;;;;;9.13;5.77;;;8.60;99.90;;;;;;5044960;28;20203;-49
2021/10/25 00:18:39;;;;;;;7.13;5.40;;;8.60;99.90;;;;;;5045982;28;20212;-49
2021/10/25 00:21:06;;;;;;;9.70;6.23;;;8.70;99.90;;;;;;5044260;28;20230;-49
2021/10/25 00:23:33;;;;;;;9.47;5.63;;;8.50;99.90;;;;;;5046369;28;20215;-52
2021/10/25 00:26:01;;;;;;;6.40;5.70;;;8.50;99.90;;;;;;5047897;28;20287;-52
2021/10/25 00:28:28;;;;;;;6.93;5.40;;;8.50;99.90;;;;;;5047914;28;20565;-49
2021/10/25 00:30:55;;;;;;;7.97;4.93;;;8.60;99.90;;;;;;5050763;28;20277;-49
2021/10/25 00:33:22;;;;;;;7.73;5.73;;;8.50;99.90;;;;;;5049017;28;20385;-52
2021/10/25 00:35:49;;;;;;;8.73;5.50;;;8.50;99.90;;;;;;5048186;28;20588;-50
2021/10/25 00:38:16;;;;;;;7.97;5.60;;;8.40;99.90;;;;;;5049443;28;20311;-49
2021/10/25 00:40:43;;;;;;;9.90;5.73;;;8.50;99.90;;;;;;5047932;28;20266;-50
2021/10/25 00:43:10;;;;;;;7.97;5.50;;;8.50;99.90;;;;;;5047345;28;20306;-49
2021/10/25 00:45:37;;;;;;;7.27;5.30;;;8.50;99.90;;;;;;5050701;28;20230;-52
2021/10/25 00:48:04;;;;;;;7.60;4.87;;;8.50;99.90;;;;;;5049227;28;20276;-49
2021/10/25 00:50:31;;;;;;;5.90;4.90;;;8.50;99.90;;;;;;5050673;28;20203;-51
2021/10/25 00:52:59;;;;;;;7.13;5.33;;;8.40;99.90;;;;;;5048302;28;20667;-52
2021/10/25 00:55:26;;;;;;;8.73;5.60;;;8.40;99.90;;;;;;5047677;28;20202;-51
2021/10/25 00:57:53;;;;;;;8.20;5.30;;;8.20;99.90;;;;;;5046704;28;20215;-51
2021/10/25 01:00:20;;;;;;;6.63;5.30;;;8.20;99.90;;;;;;5050268;28;20195;-51
2021/10/25 01:02:47;;;;;;;6.93;5.10;;;8.20;99.90;;;;;;5049324;28;20228;-51
2021/10/25 01:05:14;;;;;;;8.60;5.40;;;8.20;99.90;;;;;;5049598;28;20209;-51
2021/10/25 01:07:41;;;;;;;8.83;5.60;;;8.20;99.90;;;;;;5044313;28;20242;-51
2021/10/25 01:10:09;;;;;;;7.23;5.27;;;8.30;99.90;;;;;;5048847;28;20248;-51
2021/10/25 01:12:36;;;;;;;7.47;5.70;;;8.30;99.90;;;;;;5047935;28;20197;-51
2021/10/25 01:15:04;;;;;;;7.17;5.60;;;8.50;99.90;;;;;;5047579;28;20200;-51
2021/10/25 01:17:31;;;;;;;7.60;4.97;;;8.40;99.90;;;;;;5047625;28;20263;-51
2021/10/25 01:19:59;;;;;;;8.80;5.10;;;8.50;99.90;;;;;;5049365;28;20257;-51
2021/10/25 01:22:26;;;;;;;9.20;5.13;;;8.60;99.90;;;;;;5048915;28;20248;-51
2021/10/25 01:24:54;;;;;;;7.40;5.10;;;8.50;99.90;;;;;;5043758;28;20291;-50
2021/10/25 01:27:21;;;;;;;7.63;4.60;;;8.40;99.90;;;;;;5045581;28;20203;-51
2021/10/25 01:29:49;;;;;;;8.07;5.30;;;8.30;99.90;;;;;;5049171;28;20267;-50
2021/10/25 01:32:16;;;;;;;8.23;5.20;;;8.20;99.90;;;;;;5047563;28;20556;-51
2021/10/25 01:34:43;;;;;;;5.83;4.63;;;8.30;99.90;;;;;;5047618;28;20482;-51
2021/10/25 01:37:10;;;;;;;6.90;5.47;;;8.20;99.90;;;;;;5050822;28;20246;-50
2021/10/25 01:39:38;;;;;;;6.47;5.03;;;8.50;99.90;;;;;;5046885;28;20662;-50
2021/10/25 01:42:05;;;;;;;6.03;5.43;;;8.70;99.90;;;;;;5045263;28;20208;-50
2021/10/25 01:44:33;;;;;;;7.23;5.57;;;8.50;99.90;;;;;;5048308;28;21932;-51
2021/10/25 01:47:01;;;;;;;5.83;5.23;;;8.60;99.90;;;;;;5045752;28;20203;-51
2021/10/25 01:49:27;;;;;;;5.37;4.50;;;8.60;99.90;;;;;;5047399;28;21001;-52
2021/10/25 01:51:54;;;;;;;8.40;5.37;;;8.70;99.90;;;;;;5045251;28;20298;-51
2021/10/25 01:54:21;;;;;;;8.60;5.30;;;8.70;99.90;;;;;;5048672;28;20507;-51
2021/10/25 01:56:48;;;;;;;6.70;4.60;;;8.50;99.90;;;;;;5046727;28;20243;-52
2021/10/25 01:59:15;;;;;;;5.97;4.60;;;8.50;99.90;;;;;;5050277;28;20472;-51
2021/10/25 02:01:42;;;;;;;9.03;5.30;;;8.60;99.90;;;;;;5049436;28;20297;-51
2021/10/25 02:04:09;;;;;;;9.17;5.13;;;8.60;99.90;;;;;;5048968;28;20213;-51
2021/10/25 02:06:36;;;;;;;9.67;4.90;;;8.60;99.90;;;;;;5044489;28;20298;-51
2021/10/25 02:09:03;;;;;;;7.57;5.23;;;8.40;99.90;;;;;;5049552;28;21852;-51
2021/10/25 02:11:30;;;;;;;5.43;4.50;;;8.50;99.90;;;;;;5040664;28;20269;-50
2021/10/25 02:13:57;;;;;;;6.70;4.47;;;8.50;99.90;;;;;;5047321;28;20235;-51
2021/10/25 02:16:25;;;;;;;5.63;4.90;;;8.40;99.90;;;;;;5047830;28;20636;-51
2021/10/25 02:18:52;;;;;;;6.27;5.23;;;8.30;99.90;;;;;;5044588;28;20272;-50
2021/10/25 02:21:19;;;;;;;8.10;5.43;;;8.30;99.90;;;;;;5040562;28;20703;-50
2021/10/25 02:23:46;;;;;;;6.40;5.00;;;8.40;99.90;;;;;;5043689;28;20212;-52
2021/10/25 02:26:13;;;;;;;9.50;4.97;;;8.30;99.90;;;;;;5041596;28;20201;-51
2021/10/25 02:28:40;;;;;;;6.10;4.87;;;8.40;99.90;;;;;;5041853;28;20299;-51
2021/10/25 02:31:07;;;;;;;11.33;5.40;;;8.40;99.90;;;;;;5047844;28;20199;-51
2021/10/25 02:33:34;;;;;;;7.27;4.70;;;8.40;99.90;;;;;;5049118;28;20530;-51
2021/10/25 02:36:05;;;;;;;5.70;4.73;;;8.50;99.90;;;;;;5047699;28;20670;-51
2021/10/25 02:38:36;;;;;;;9.23;4.77;;;8.50;99.90;;;;;;5049042;28;20220;-51
2021/10/25 02:41:06;;;;;;;8.17;4.50;;;8.50;99.90;;;;;;5045322;28;20208;-51
2021/10/25 02:43:34;;;;;;;7.90;4.60;;;8.70;99.90;;;;;;5048294;28;20251;-51
2021/10/25 02:46:02;;;;;;;8.30;5.03;;;8.60;99.90;;;;;;5048014;28;20247;-51
2021/10/25 02:48:30;;;;;;;6.90;4.37;;;8.60;99.90;;;;;;5049080;28;20188;-51
2021/10/25 02:50:57;;;;;;;6.80;5.00;;;8.80;99.90;;;;;;5046933;28;20204;-51
2021/10/25 02:53:24;;;;;;;6.33;4.53;;;8.80;99.90;;;;;;5048826;28;20192;-51
2021/10/25 02:55:52;;;;;;;8.37;5.07;;;8.70;99.90;;;;;;5046764;28;20207;-51
2021/10/25 02:58:19;;;;;;;7.53;5.13;;;8.80;99.90;;;;;;5046676;28;20196;-51
2021/10/25 03:00:47;;;;;;;7.43;4.20;;;8.80;99.90;;;;;;5047905;28;20247;-51
2021/10/25 03:03:14;;;;;;;8.07;4.70;;;8.80;99.90;;;;;;5048188;28;20200;-51
2021/10/25 03:05:41;;;;;;;8.30;4.40;;;8.80;99.90;;;;;;5047604;28;20333;-52
2021/10/25 03:08:08;;;;;;;9.13;4.33;;;8.90;99.90;;;;;;5046907;28;20232;-52
2021/10/25 03:10:35;;;;;;;7.00;4.80;;;8.90;99.90;;;;;;5046588;28;20196;-51
2021/10/25 03:13:02;;;;;;;5.90;4.63;;;8.90;99.90;;;;;;5046484;28;20218;-50
2021/10/25 03:15:29;;;;;;;7.03;4.70;;;8.90;99.90;;;;;;5047992;28;20199;-50
2021/10/25 03:17:56;;;;;;;8.07;5.00;;;8.90;99.90;;;;;;5047916;28;20278;-50
2021/10/25 03:20:23;;;;;;;7.17;5.07;;;8.90;99.90;;;;;;5045637;28;20688;-50
2021/10/25 03:22:50;;;;;;;7.63;4.57;;;8.90;99.90;;;;;;5047843;28;20247;-51
2021/10/25 03:25:16;;;;;;;8.27;4.63;;;8.80;99.90;;;;;;5046850;28;20236;-51
2021/10/25 03:27:44;;;;;;;8.93;4.97;;;8.80;99.90;;;;;;5046778;28;20570;-51
2021/10/25 03:30:12;;;;;;;7.60;4.73;;;8.90;99.90;;;;;;5045778;28;20238;-51
2021/10/25 03:32:39;;;;;;;8.63;4.50;;;9.00;99.90;;;;;;5044661;28;20207;-52
2021/10/25 03:35:07;;;;;;;8.47;5.30;;;9.00;99.90;;;;;;5040745;28;20594;-49
2021/10/25 03:37:36;;;;;;;7.50;4.47;;;9.10;99.90;;;;;;5046624;28;20277;-51
2021/10/25 03:40:03;;;;;;;6.60;4.17;;;9.20;99.90;;;;;;5044316;28;20285;-51
2021/10/25 03:42:36;;;;;;;10.70;4.77;;;9.20;99.90;;;;;;5047712;28;20292;-51
2021/10/25 03:47:37;;;;;;;5.83;4.40;;;9.20;99.90;;;;;;5047295;28;20193;-51
2021/10/25 03:50:22;;;;;;;6.20;4.60;;;9.30;99.90;;;;;;5046134;28;20208;-52
2021/10/25 04:29:47;;;;;;;8.20;5.10;;;9.60;99.90;;;;;;5037851;28;20207;-52
2021/10/25 04:32:14;;;;;;;9.77;4.50;;;9.60;99.90;;;;;;5038636;28;20316;-49
2021/10/25 04:34:41;;;;;;;7.23;4.80;;;9.70;99.90;;;;;;5033268;28;20617;-52
2021/10/25 04:37:07;;;;;;;6.57;4.43;;;9.60;99.90;;;;;;5031936;28;20228;-50
2021/10/25 04:39:35;;;;;;;6.40;4.43;;;9.80;99.90;;;;;;5037415;28;20231;-50
2021/10/25 04:42:02;;;;;;;5.33;3.97;;;9.90;99.90;;;;;;5035573;28;20365;-49
2021/10/25 04:44:30;;;;;;;6.93;5.10;;;10.00;99.90;;;;;;5035078;28;20248;-49
2021/10/25 04:46:57;;;;;;;6.97;4.00;;;9.90;99.90;;;;;;5037040;28;20199;-50
2021/10/25 04:49:23;;;;;;;8.43;5.10;;;9.80;99.90;;;;;;5044909;28;20232;-49
2021/10/25 04:51:50;;;;;;;5.27;3.73;;;9.90;99.90;;;;;;5045289;28;20650;-50
2021/10/25 04:54:17;;;;;;;7.70;4.23;;;9.90;99.90;;;;;;5045790;28;20283;-50
2021/10/25 04:56:44;;;;;;;6.70;4.63;;;9.90;99.90;;;;;;5041137;28;20239;-52
2021/10/25 04:59:10;;;;;;;7.13;4.03;;;9.90;99.90;;;;;;5045913;28;20302;-50
2021/10/25 05:01:37;;;;;;;5.77;4.23;;;10.00;99.90;;;;;;5045785;28;20200;-52
2021/10/25 05:04:04;;;;;;;10.57;5.10;;;9.80;99.90;;;;;;5048461;28;20205;-50
2021/10/25 05:06:31;;;;;;;5.70;3.80;;;9.70;99.90;;;;;;5047920;28;20605;-51
2021/10/25 05:08:58;;;;;;;7.50;4.20;;;9.80;99.90;;;;;;5039520;28;20207;-52
2021/10/25 05:11:25;;;;;;;7.30;4.80;;;9.80;99.90;;;;;;5036186;28;20206;-50
2021/10/25 05:13:52;;;;;;;7.63;4.77;;;9.80;99.90;;;;;;5039986;28;20208;-49
2021/10/25 05:16:19;;;;;;;5.07;4.10;;;9.80;99.90;;;;;;5046353;28;20196;-50
2021/10/25 05:18:45;;;;;;;6.00;4.30;;;9.70;99.90;;;;;;5037112;28;20631;-51
2021/10/25 05:21:12;;;;;;;7.40;5.07;;;9.80;99.90;;;;;;5040323;28;20220;-51
2021/10/25 05:23:39;;;;;;;7.50;4.27;;;9.80;99.90;;;;;;5037893;28;20641;-52
2021/10/25 05:26:06;;;;;;;6.23;4.10;;;9.90;99.90;;;;;;5035063;28;20211;-51
2021/10/25 05:28:33;;;;;;;5.17;4.40;;;9.80;99.90;;;;;;5038033;28;20200;-51
2021/10/25 05:31:00;;;;;;;6.00;3.97;;;9.80;99.90;;;;;;5036793;28;20279;-51
2021/10/25 05:33:27;;;;;;;8.43;4.17;;;9.80;99.90;;;;;;5039596;28;20200;-51
2021/10/25 05:35:54;;;;;;;6.77;4.40;;;10.00;99.90;;;;;;5037707;28;20227;-52
2021/10/25 05:38:21;;;;;;;6.33;4.03;;;9.90;99.90;;;;;;5040426;28;20259;-51
2021/10/25 05:40:48;;;;;;;5.93;4.00;;;10.00;99.90;;;;;;5043383;28;20207;-52
2021/10/25 05:43:15;;;;;;;6.20;4.33;;;9.90;99.90;;;;;;5036312;28;20390;-51
2021/10/25 05:45:42;;;;;;;4.87;3.63;;;9.80;99.90;;;;;;5035794;28;20710;-51
2021/10/25 05:48:09;;;;;;;6.87;3.67;;;10.00;99.90;;;;;;5034264;28;20232;-51
2021/10/25 05:50:36;;;;;;;5.63;4.10;;;9.90;99.90;;;;;;5042192;28;20193;-51
2021/10/25 05:53:03;;;;;;;7.67;4.07;;;10.00;99.90;;;;;;5033300;28;20248;-51
2021/10/25 05:55:31;;;;;;;5.90;3.80;;;9.90;99.90;;;;;;5043165;28;20204;-52
2021/10/25 05:57:58;;;;;;;5.67;3.90;;;9.90;99.90;;;;;;5032855;28;21947;-49
2021/10/25 06:00:32;;;;;;;6.40;3.93;;;9.90;99.90;;;;;;5035817;28;20273;-52
2021/10/25 06:02:58;;;;;;;8.97;4.33;;;9.80;99.90;;;;;;5037236;28;20782;-50
2021/10/25 06:05:29;;;;;;;7.07;4.20;;;9.80;99.90;;;;;;5037337;28;20205;-52
2021/10/25 06:07:58;;;;;;;8.73;4.20;;;10.00;99.90;;;;;;5037762;28;20320;-50
2021/10/25 06:10:27;;;;;;;8.30;4.07;;;9.70;99.90;;;;;;5034872;28;20680;-49
2021/10/25 06:12:57;;;;;;;6.47;4.17;;;9.80;99.90;;;;;;5037114;28;20214;-52
2021/10/25 06:15:29;;;;;;;6.93;3.73;;;9.90;99.90;;;;;;5037271;28;20633;-52
2021/10/25 06:17:57;;;;;;;6.17;4.40;;;9.80;99.90;;;;;;5041269;28;20212;-51
2021/10/25 06:20:29;;;;;;;5.97;4.47;;;9.90;99.90;;;;;;5036740;28;20195;-51
2021/10/25 06:22:57;;;;;;;8.03;4.47;;;9.90;99.90;;;;;;5041080;28;20751;-51
2021/10/25 06:25:25;;;;;;;6.13;3.70;;;9.90;99.90;;;;;;5039658;28;20584;-50
2021/10/25 06:27:52;;;;;;;7.53;4.83;;;9.80;99.90;;;;;;5039394;28;20516;-52
2021/10/25 06:30:21;;;;;;;4.93;3.80;;;9.90;99.90;;;;;;5041987;28;20199;-51
2021/10/25 06:32:48;;;;;;;6.37;4.00;;;9.80;99.90;;;;;;5036974;28;20541;-52
2021/10/25 06:35:17;;;;;;;5.27;4.30;;;9.80;99.90;;;;;;5037537;28;20203;-51
2021/10/25 06:40:20;;;;;;;6.10;4.20;;;10.00;99.90;;;;;;5044598;28;20196;-50
2021/10/25 06:42:48;;;;;;;6.87;4.27;;;10.00;99.90;;;;;;5031335;28;20220;-50
2021/10/25 06:45:18;;;;;;;11.90;4.60;;;10.10;99.90;;;;;;5043305;28;20248;-50
2021/10/25 06:47:46;;;;;;;6.40;3.93;;;10.00;99.90;;;;;;5038330;28;20657;-52
2021/10/25 06:50:15;;;;;;;6.90;4.20;;;10.10;99.90;;;;;;5030693;28;20198;-49
2021/10/25 06:52:42;;;;;;;6.73;4.73;;;10.10;99.90;;;;;;5034800;28;20208;-50
2021/10/25 06:55:10;;;;;;;5.43;3.80;;;10.10;99.90;;;;;;5037185;28;20283;-50
2021/10/25 06:57:37;;;;;;;5.77;4.37;;;10.10;99.90;;;;;;5032923;28;20271;-53
2021/10/25 07:00:07;;;;;;;9.83;4.57;;;10.10;99.90;;;;;;5037754;28;20206;-50
2021/10/25 07:02:35;;;;;;;7.97;4.47;;;10.20;99.90;;;;;;5034088;28;20200;-50
2021/10/25 07:05:03;;;;;;;7.03;4.17;;;10.30;99.90;;;;;;5036238;28;20305;-50
2021/10/25 07:07:30;;;;;;;8.43;4.27;;;10.20;99.90;;;;;;5041783;28;20707;-50
2021/10/25 07:09:58;;;;;;;5.13;4.27;;;10.20;99.90;;;;;;5042380;28;20201;-50
2021/10/25 07:12:26;;;;;;;6.20;4.20;;;10.30;99.90;;;;;;5032504;28;20230;-50
2021/10/25 07:14:56;;;;;;;4.80;4.30;;;10.20;99.90;;;;;;5038990;28;20285;-50
2021/10/25 08:12:10;;;;;;;6.77;4.50;;;10.40;99.90;;;;;;5031449;28;20275;-49
2021/10/25 08:14:41;;;;;;;5.17;4.00;;;10.40;99.90;;;;;;5041423;28;20718;-49
2021/10/25 08:17:10;;;;;;;6.63;4.50;;;10.40;99.90;;;;;;5032823;28;20202;-49
2021/10/25 08:19:37;;;;;;;5.80;4.47;;;10.40;99.90;;;;;;5038772;28;20192;-50
2021/10/25 08:22:14;;;;;;;4.47;3.63;;;10.50;99.90;;;;;;5036757;28;20235;-49
2021/10/25 08:24:45;;;;;;;5.47;4.70;;;10.50;99.90;;;;;;5036639;28;20258;-50
2021/10/25 08:27:13;;;;;;;7.43;4.07;;;10.60;99.90;;;;;;5037176;28;20196;-50
2021/10/25 08:29:42;;;;;;;7.20;3.60;;;10.60;99.90;;;;;;5035208;28;20280;-50
2021/10/25 08:32:25;;;;;;;6.90;4.13;;;10.60;99.90;;;;;;5032853;28;20247;-49
2021/10/25 08:39:47;;;;;;;7.47;4.17;;;10.60;99.90;;;;;;5041503;28;20200;-51
2021/10/25 08:42:20;;;;;;;5.90;4.37;;;10.60;99.90;;;;;;5034653;28;20321;-52
2021/10/25 08:44:51;;;;;;;5.37;4.10;;;10.60;99.90;;;;;;5038817;28;20253;-52
2021/10/25 08:47:23;;;;;;;7.63;4.50;;;10.60;99.90;;;;;;5042273;28;20329;-50
2021/10/25 08:49:50;;;;;;;8.93;4.10;;;10.50;99.90;;;;;;5038974;28;20302;-50
2021/10/25 08:52:20;;;;;;;6.50;4.00;;;10.50;99.90;;;;;;5038261;28;20215;-49
2021/10/25 08:54:51;;;;;;;6.13;4.10;;;10.60;99.90;;;;;;5040206;28;20207;-50
2021/10/25 08:57:23;;;;;;;6.80;4.30;;;10.70;99.90;;;;;;5041592;28;20726;-50
2021/10/25 09:00:05;;;;;;;5.33;3.93;;;10.80;99.90;;;;;;5038649;28;20254;-52
2021/10/25 09:02:33;;;;;;;7.40;4.43;;;10.90;99.90;;;;;;5035238;28;20698;-51
2021/10/25 09:05:07;;;;;;;6.43;4.27;;;10.70;99.90;;;;;;5039699;28;20207;-52
2021/10/25 09:08:04;;;;;;;5.83;4.13;;;10.70;99.90;;;;;;5040360;28;20664;-51
2021/10/25 09:10:41;;;;;;;5.87;4.00;;;10.80;99.90;;;;;;5040427;28;20244;-49
2021/10/25 09:13:16;;;;;;;5.23;4.13;;;10.80;99.90;;;;;;5038559;28;20213;-52
2021/10/25 09:16:14;;;;;;;6.27;4.03;;;10.90;99.90;;;;;;5037849;28;20603;-51
2021/10/25 09:18:41;;;;;;;5.43;4.27;;;11.00;99.90;;;;;;5027918;28;20319;-52
2021/10/25 09:21:10;;;;;;;8.37;4.73;;;11.10;99.90;;;;;;5035920;28;20346;-51
2021/10/25 09:23:46;;;;;;;7.07;3.83;;;11.20;99.90;;;;;;5039773;28;20231;-51
2021/10/25 09:26:16;;;;;;;6.97;3.90;;;11.10;99.90;;;;;;5035237;28;20220;-51
2021/10/25 09:28:51;;;;;;;6.30;4.40;;;11.00;99.90;;;;;;5038040;28;20211;-51
2021/10/25 09:31:26;;;;;;;6.23;4.10;;;11.10;99.90;;;;;;5033015;28;20210;-52
2021/10/25 09:34:00;;;;;;;6.57;3.73;;;11.20;99.90;;;;;;5038260;28;20254;-50
2021/10/25 09:36:34;;;;;;;6.67;4.13;;;11.30;99.90;;;;;;5040797;28;20225;-50
2021/10/25 09:42:24;;;;;;;5.20;4.50;;;11.30;99.90;;;;;;5026968;28;20256;-50
2021/10/25 09:45:37;;;;;;;4.77;3.80;;;11.30;99.90;;;;;;5037567;28;20246;-50
2021/10/25 09:51:20;;;;;;;5.53;4.10;;;11.60;99.90;;;;;;5020451;28;20211;-50
2021/10/25 09:54:05;;;;;;;5.70;4.33;;;11.50;99.90;;;;;;5035383;28;20300;-52
2021/10/25 09:56:34;;;;;;;4.80;3.70;;;11.60;99.90;;;;;;5035321;28;20218;-51
2021/10/25 10:01:36;;;;;;;6.70;3.93;;;11.70;99.90;;;;;;5036545;28;20218;-50
2021/10/25 10:04:05;;;;;;;7.57;3.80;;;11.80;99.90;;;;;;5036173;28;20291;-49
2021/10/25 10:06:32;;;;;;;5.50;4.27;;;12.00;99.90;;;;;;5038545;28;20261;-52
2021/10/25 10:09:00;;;;;;;6.43;4.30;;;11.90;99.90;;;;;;5037079;28;20263;-52
2021/10/25 10:11:27;;;;;;;6.33;4.00;;;11.90;99.90;;;;;;5034679;28;20327;-52
2021/10/25 10:13:56;;;;;;;10.50;4.70;;;12.00;99.90;;;;;;5035935;28;20658;-50
2021/10/25 10:16:24;;;;;;;5.50;4.13;;;12.00;99.90;;;;;;5034066;28;20216;-50
2021/10/25 10:19:04;;;;;;;6.30;4.07;;;12.10;99.90;;;;;;5034079;28;20211;-52
2021/10/25 10:21:31;;;;;;;5.43;3.80;;;12.10;99.90;;;;;;5033223;28;20275;-51
2021/10/25 10:24:04;;;;;;;6.60;3.97;;;12.10;99.90;;;;;;5033798;28;20300;-51
2021/10/25 10:26:33;;;;;;;5.03;3.73;;;12.10;99.90;;;;;;5036041;28;20258;-51
2021/10/25 10:29:15;;;;;;;5.50;4.33;;;12.20;99.90;;;;;;5035555;28;20209;-51
2021/10/25 10:31:43;;;;;;;6.53;4.03;;;12.10;99.90;;;;;;5034279;28;20242;-51
2021/10/25 10:34:15;;;;;;;5.40;3.83;;;12.20;99.90;;;;;;5039949;28;20202;-51
2021/10/25 10:36:54;;;;;;;5.67;4.00;;;12.30;99.90;;;;;;5040451;28;20258;-52
2021/10/25 10:39:27;;;;;;;5.53;3.70;;;12.30;99.90;;;;;;5038267;28;20279;-50
2021/10/25 10:41:57;;;;;;;8.90;4.03;;;12.30;99.90;;;;;;5043096;28;20376;-51
2021/10/25 10:44:27;;;;;;;7.20;4.30;;;12.20;99.90;;;;;;5035514;28;20248;-49
2021/10/25 10:47:02;;;;;;;5.40;4.27;;;12.20;99.90;;;;;;5042511;28;20239;-52
2021/10/25 10:49:39;;;;;;;5.83;4.33;;;12.30;99.90;;;;;;5033502;28;20227;-51
2021/10/25 10:55:04;;;;;;;9.17;5.03;;;12.50;99.90;;;;;;5039361;28;20358;-51
2021/10/25 11:00:37;;;;;;;6.77;4.47;;;12.70;99.90;;;;;;5032054;28;20264;-52
2021/10/25 11:03:07;;;;;;;5.90;3.87;;;12.50;99.90;;;;;;5039997;28;20217;-52
2021/10/25 11:05:35;;;;;;;8.10;4.70;;;12.40;99.90;;;;;;5033175;28;20202;-49
2021/10/25 11:08:07;;;;;;;5.50;3.93;;;12.40;99.90;;;;;;5042793;28;20265;-52
2021/10/25 11:10:38;;;;;;;6.53;4.37;;;12.30;99.90;;;;;;5039003;28;20202;-50
2021/10/25 11:13:16;;;;;;;8.43;4.37;;;12.30;99.90;;;;;;5037462;28;20223;-52
2021/10/25 11:16:16;;;;;;;7.83;4.60;;;12.40;99.90;;;;;;5038964;28;20306;-49
2021/10/25 11:18:46;;;;;;;9.23;4.80;;;12.50;99.90;;;;;;5040898;28;20201;-49
2021/10/25 11:21:30;;;;;;;6.37;4.00;;;12.50;99.90;;;;;;5036339;28;20248;-52
2021/10/25 11:24:07;;;;;;;7.73;4.43;;;12.60;99.90;;;;;;5039688;28;20224;-52
2021/10/25 11:26:46;;;;;;;7.33;4.10;;;12.60;99.90;;;;;;5045227;28;20244;-49
2021/10/25 11:29:26;;;;;;;8.20;4.17;;;12.60;99.90;;;;;;5037353;28;20199;-50
2021/10/25 11:31:56;;;;;;;8.90;4.10;;;12.80;99.90;;;;;;5037078;28;20202;-50
2021/10/25 11:34:28;;;;;;;10.83;5.17;;;12.90;99.90;;;;;;5036515;28;20207;-50
2021/10/25 11:37:06;;;;;;;6.90;3.93;;;13.00;99.90;;;;;;5037760;28;20654;-52
2021/10/25 11:39:52;;;;;;;6.60;4.43;;;12.90;99.90;;;;;;5035833;28;20233;-50
2021/10/25 11:42:25;;;;;;;7.37;4.87;;;13.10;99.90;;;;;;5035263;28;20289;-50
2021/10/25 11:44:57;;;;;;;7.57;4.80;;;13.10;99.90;;;;;;5034471;28;20250;-50
2021/10/25 11:47:30;;;;;;;7.70;4.40;;;12.90;99.90;;;;;;5043031;28;20603;-49
2021/10/25 11:50:00;;;;;;;7.37;4.47;;;13.00;99.90;;;;;;5031273;28;20666;-52
2021/10/25 11:52:37;;;;;;;7.77;5.27;;;13.10;99.90;;;;;;5031486;28;20193;-50
2021/10/25 11:55:04;;;;;;;7.40;4.90;;;13.40;99.90;;;;;;5035984;28;20737;-51
2021/10/25 11:57:31;;;;;;;7.33;4.97;;;13.90;99.90;;;;;;5029276;28;20239;-50
2021/10/25 12:00:05;;;;;;;8.27;4.50;;;14.50;99.90;;;;;;5032272;28;20212;-51
2021/10/25 12:02:37;;;;;;;6.57;4.50;;;15.10;99.90;;;;;;5034079;28;20255;-51
2021/10/25 12:05:05;;;;;;;7.07;4.27;;;15.00;63.10;;;;;;5034295;28;20228;-50
2021/10/25 12:07:33;;;;;;;8.07;4.40;;;15.00;34.10;;;;;;5034248;28;20236;-50
2021/10/25 12:10:06;;;;;;;6.67;4.97;;;15.20;44.10;;;;;;5032711;28;20228;-52
2021/10/25 12:12:33;;;;;;;5.73;4.43;;;15.10;65.60;;;;;;5036354;28;20949;-52
2021/10/25 12:15:02;;;;;;;7.20;4.60;;;15.00;23.70;;;;;;5041875;28;20205;-51
2021/10/25 12:17:35;;;;;;;6.13;4.63;;;15.70;99.90;;;;;;5042876;28;20624;-50
2021/10/25 12:20:09;;;;;;;7.57;5.00;;;15.70;1.00;;;;;;5040066;28;20229;-50
2021/10/25 12:22:37;;;;;;;7.83;4.80;;;16.10;1.00;;;;;;5040574;28;20199;-50
2021/10/25 12:25:05;;;;;;;5.30;4.40;;;16.20;1.00;;;;;;5037586;28;20258;-50
2021/10/25 12:27:38;;;;;;;8.33;4.47;;;16.10;1.00;;;;;;5040059;28;20200;-50
2021/10/25 12:30:13;;;;;;;8.13;4.37;;;15.50;1.00;;;;;;5040687;28;20198;-53
2021/10/25 12:32:55;;;;;;;7.23;4.80;;;15.30;65.80;;;;;;5040820;28;20301;-50
2021/10/25 12:35:34;;;;;;;8.23;4.73;;;14.80;99.90;;;;;;5037390;28;20233;-51
2021/10/25 12:38:04;;;;;;;6.20;4.93;;;14.90;99.90;;;;;;5038142;28;20984;-53
2021/10/25 12:40:40;;;;;;;6.47;4.70;;;15.00;99.90;;;;;;5039192;28;20231;-50
2021/10/25 12:43:08;;;;;;;8.60;5.00;;;14.70;99.90;;;;;;5039148;28;20273;-52
2021/10/25 12:45:42;;;;;;;6.50;4.70;;;14.60;99.90;;;;;;5038571;28;20682;-49
2021/10/25 12:48:11;;;;;;;8.63;4.67;;;14.60;99.90;;;;;;5036273;28;20270;-50
2021/10/25 12:50:41;;;;;;;6.87;4.47;;;14.60;99.90;;;;;;5035910;28;20594;-51
2021/10/25 12:53:09;;;;;;;5.50;4.90;;;14.60;99.90;;;;;;5038621;28;20295;-50
2021/10/25 12:55:38;;;;;;;6.33;4.50;;;14.60;99.90;;;;;;5035081;28;20657;-50
2021/10/25 12:58:07;;;;;;;6.83;4.77;;;15.10;99.90;;;;;;5040002;28;20213;-50
2021/10/25 13:00:35;;;;;;;6.27;4.50;;;15.60;78.90;;;;;;5039100;28;20213;-50
2021/10/25 13:03:08;;;;;;;5.73;4.30;;;15.40;17.00;;;;;;5038240;28;21017;-50
2021/10/25 13:05:38;;;;;;;8.57;4.40;;;15.40;38.60;;;;;;5039349;28;20222;-50
2021/10/25 13:08:07;;;;;;;4.63;3.97;;;15.30;47.80;;;;;;5038969;28;20423;-52
2021/10/25 13:10:37;;;;;;;6.87;3.97;;;15.10;99.90;;;;;;5039431;28;20662;-50
2021/10/25 13:13:08;;;;;;;4.97;4.07;;;15.30;99.90;;;;;;5040857;28;20556;-52
2021/10/25 13:15:36;;;;;;;6.17;4.53;;;15.10;99.90;;;;;;5039792;28;20725;-50
2021/10/25 13:18:05;;;;;;;6.40;3.97;;;15.10;99.90;;;;;;5037466;28;20604;-52
2021/10/25 13:20:34;;;;;;;5.03;4.13;;;15.10;99.90;;;;;;5037556;28;20207;-51
2021/10/25 13:23:04;;;;;;;6.73;4.50;;;15.10;99.90;;;;;;5038302;28;20671;-51
2021/10/25 13:25:32;;;;;;;6.43;4.33;;;15.00;99.90;;;;;;5035977;28;20221;-51
2021/10/25 13:28:02;;;;;;;4.93;3.77;;;15.20;99.90;;;;;;5034071;28;20236;-61
2021/10/25 13:30:30;;;;;;;5.80;4.47;;;15.20;99.90;;;;;;5034287;28;20205;-52
2021/10/25 13:32:57;;;;;;;5.00;4.13;;;15.10;99.90;;;;;;5035179;28;20197;-52
2021/10/25 13:35:24;;;;;;;5.93;4.13;;;14.90;99.90;;;;;;5031227;28;20849;-50
2021/10/25 13:37:52;;;;;;;6.00;3.97;;;15.10;99.90;;;;;;5029369;28;20455;-49
2021/10/25 13:40:23;;;;;;;6.30;3.90;;;15.40;99.90;;;;;;5027477;28;20213;-50
2021/10/25 13:42:51;;;;;;;7.37;4.27;;;15.80;99.90;;;;;;5031769;28;21071;-50
2021/10/25 13:45:19;;;;;;;7.87;4.37;;;16.00;19.70;;;;;;5032644;28;20225;-51
2021/10/25 13:47:47;;;;;;;5.80;5.07;;;15.70;61.30;;;;;;5031713;28;20209;-51
2021/10/25 13:50:14;;;;;;;6.57;4.90;;;15.40;99.90;;;;;;5029898;28;20254;-50
2021/10/25 13:52:41;;;;;;;6.80;4.70;;;15.30;99.90;;;;;;5028112;28;21002;-50
2021/10/25 13:55:10;;;;;;;7.37;5.20;;;15.30;99.90;;;;;;5031110;28;20207;-51
2021/10/25 13:57:41;;;;;;;5.97;5.10;;;15.30;99.90;;;;;;5027706;28;20209;-50
2021/10/25 14:00:13;;;;;;;7.20;5.73;;;15.30;99.90;;;;;;5033574;28;20785;-52
2021/10/25 14:02:42;;;;;;;9.20;5.83;;;15.10;99.90;;;;;;5031963;28;20612;-50
2021/10/25 14:05:11;;;;;;;6.57;5.23;;;15.00;99.90;;;;;;5034299;28;20225;-52
2021/10/25 14:07:38;;;;;;;5.90;5.30;;;15.10;99.90;;;;;;5034838;28;20591;-51
2021/10/25 14:10:18;;;;;;;7.50;4.77;;;15.10;99.90;;;;;;5035125;28;20202;-51
2021/10/25 14:12:47;;;;;;;7.27;4.53;;;15.10;99.90;;;;;;5035734;28;20228;-51
2021/10/25 14:17:45;;;;;;;4.83;4.43;;;14.90;99.90;;;;;;5037016;28;20557;-51
2021/10/25 14:20:14;;;;;;;6.77;4.63;;;14.90;99.90;;;;;;5032927;28;20708;-51
2021/10/25 14:22:42;;;;;;;6.67;4.17;;;14.80;99.90;;;;;;5035061;28;20250;-51
2021/10/25 14:25:10;;;;;;;5.30;3.70;;;15.00;99.90;;;;;;5034936;28;20684;-53
2021/10/25 14:27:38;;;;;;;4.33;3.87;;;15.20;99.90;;;;;;5031933;28;20208;-50
2021/10/25 14:30:07;;;;;;;4.90;4.03;;;15.30;99.90;;;;;;5032984;28;20266;-50
2021/10/25 14:32:34;;;;;;;5.43;4.10;;;15.20;99.90;;;;;;5031963;28;20201;-50
2021/10/25 14:35:02;;;;;;;6.00;4.27;;;15.00;99.90;;;;;;5032627;28;20675;-50
2021/10/25 14:37:50;;;;;;;5.90;4.80;;;14.90;99.90;;;;;;5034632;28;20220;-50
2021/10/25 14:40:23;;;;;;;7.67;4.63;;;14.80;99.90;;;;;;5032145;28;20280;-50
2021/10/25 14:43:00;;;;;;;8.10;4.60;;;14.60;99.90;;;;;;5033377;28;20300;-51
2021/10/25 14:45:31;;;;;;;7.30;4.47;;;14.50;99.90;;;;;;5029627;28;20374;-51
2021/10/25 14:56:06;;;;;;;5.93;4.53;;;14.40;99.90;;;;;;5034466;28;20618;-52
2021/10/25 14:58:35;;;;;;;6.67;4.90;;;14.40;99.90;;;;;;5031937;28;20255;-52
2021/10/25 15:01:02;;;;;;;7.30;3.87;;;14.40;99.90;;;;;;5029497;28;20208;-50
2021/10/25 15:03:30;;;;;;;5.57;4.53;;;14.40;99.90;;;;;;5031730;28;20209;-50
2021/10/25 15:05:58;;;;;;;6.10;4.37;;;14.40;99.90;;;;;;5031555;28;20666;-50
2021/10/25 15:08:27;;;;;;;5.93;4.53;;;14.40;99.90;;;;;;5028449;28;20324;-52
2021/10/25 15:10:55;;;;;;;7.20;4.37;;;14.50;99.90;;;;;;5031710;28;20196;-50